createdAt,value
2017-11-18T00:02:25.840Z,5.60
2017-11-18T00:04:53.527Z,5.60
2017-11-18T00:07:21.998Z,5.60
2017-11-18T00:09:50.425Z,5.60
2017-11-18T00:12:18.897Z,5.60
2017-11-18T00:14:46.565Z,5.60
2017-11-18T00:17:14.274Z,5.50
2017-11-18T00:19:42.700Z,5.60
2017-11-18T00:22:10.412Z,5.50
2017-11-18T00:24:38.837Z,5.50
2017-11-18T00:27:06.542Z,5.50
2017-11-18T00:29:35.009Z,5.70
2017-11-18T00:32:02.712Z,5.70
2017-11-18T00:34:30.364Z,5.60
2017-11-18T00:36:58.067Z,5.60
2017-11-18T00:39:25.729Z,5.50
2017-11-18T00:41:53.454Z,5.50
2017-11-18T00:44:21.110Z,5.60
2017-11-18T00:46:48.818Z,5.60
2017-11-18T00:49:16.516Z,5.70
2017-11-18T00:51:44.936Z,5.60
2017-11-18T00:54:12.640Z,5.50
2017-11-18T00:56:41.073Z,5.40
2017-11-18T00:59:08.772Z,5.40
2017-11-18T01:01:36.441Z,5.40
2017-11-18T01:04:04.904Z,5.40
2017-11-18T01:06:32.564Z,5.30
2017-11-18T01:09:01.036Z,5.50
2017-11-18T01:11:28.695Z,5.50
2017-11-18T01:13:56.393Z,5.30
2017-11-18T01:16:24.053Z,5.40
2017-11-18T01:18:51.744Z,5.50
2017-11-18T01:21:19.396Z,5.50
2017-11-18T01:23:47.097Z,5.50
2017-11-18T01:26:14.753Z,5.50
2017-11-18T01:28:42.453Z,5.60
2017-11-18T01:31:10.115Z,5.70
2017-11-18T01:33:37.840Z,5.70
2017-11-18T01:36:05.565Z,5.70
2017-11-18T01:38:33.263Z,5.60
2017-11-18T01:41:00.925Z,5.60
2017-11-18T01:43:29.409Z,5.60
2017-11-18T01:45:57.842Z,5.50
2017-11-18T01:48:26.292Z,5.60
2017-11-18T01:50:54.057Z,5.60
2017-11-18T01:53:21.748Z,5.60
2017-11-18T01:55:49.476Z,5.60
2017-11-18T01:58:17.140Z,5.60
2017-11-18T02:00:44.832Z,5.60
2017-11-18T02:03:12.533Z,5.60
2017-11-18T02:05:41.073Z,5.60
2017-11-18T02:08:08.780Z,5.60
2017-11-18T02:10:36.516Z,5.60
2017-11-18T02:13:04.219Z,5.50
2017-11-18T02:15:31.980Z,5.50
2017-11-18T02:17:59.670Z,5.60
2017-11-18T02:20:27.430Z,5.50
2017-11-18T02:22:55.162Z,5.50
2017-11-18T02:25:22.937Z,5.60
2017-11-18T02:27:50.652Z,5.70
2017-11-18T02:30:19.180Z,5.70
2017-11-18T02:32:46.946Z,5.70
2017-11-18T02:35:14.759Z,5.60
2017-11-18T02:37:43.263Z,5.60
2017-11-18T02:40:11.040Z,5.60
2017-11-18T02:42:38.765Z,5.50
2017-11-18T02:45:07.317Z,5.50
2017-11-18T02:47:35.097Z,5.50
2017-11-18T02:50:03.597Z,5.60
2017-11-18T02:52:31.373Z,5.60
2017-11-18T02:54:59.109Z,5.70
2017-11-18T02:57:27.661Z,5.60
2017-11-18T02:59:55.388Z,5.60
2017-11-18T03:02:23.128Z,5.50
2017-11-18T03:04:50.799Z,5.50
2017-11-18T03:07:18.532Z,5.50
2017-11-18T03:09:46.984Z,5.50
2017-11-18T03:12:14.707Z,5.50
2017-11-18T03:14:42.408Z,5.60
2017-11-18T03:17:10.142Z,5.60
2017-11-18T03:19:37.830Z,5.60
2017-11-18T03:22:05.576Z,5.60
2017-11-18T03:24:33.279Z,5.70
2017-11-18T03:27:01.036Z,5.60
2017-11-18T03:29:29.505Z,5.50
2017-11-18T03:31:58.002Z,5.40
2017-11-18T03:34:25.723Z,5.40
2017-11-18T03:36:53.467Z,5.30
2017-11-18T03:39:21.173Z,5.20
2017-11-18T03:41:49.674Z,5.30
2017-11-18T03:44:17.350Z,5.30
2017-11-18T03:46:45.080Z,5.10
2017-11-18T03:49:12.761Z,5.10
2017-11-18T03:51:40.437Z,5.00
2017-11-18T03:54:08.173Z,5.00
2017-11-18T03:56:35.852Z,5.10
2017-11-18T03:59:03.600Z,5.20
2017-11-18T04:01:31.326Z,5.20
2017-11-18T04:03:59.833Z,5.30
2017-11-18T04:06:27.526Z,5.30
2017-11-18T04:08:55.262Z,5.30
2017-11-18T04:11:22.964Z,5.20
2017-11-18T04:13:50.705Z,5.10
2017-11-18T04:16:18.382Z,5.00
2017-11-18T04:18:46.106Z,4.90
2017-11-18T04:21:13.806Z,4.80
2017-11-18T04:23:41.536Z,5.00
2017-11-18T04:26:09.239Z,5.20
2017-11-18T04:28:37.752Z,5.20
2017-11-18T04:31:05.460Z,5.20
2017-11-18T04:33:33.192Z,5.20
2017-11-18T04:36:00.904Z,5.00
2017-11-18T04:38:29.412Z,4.90
2017-11-18T04:40:57.138Z,4.90
2017-11-18T04:43:25.661Z,5.00
2017-11-18T04:45:53.344Z,5.00
2017-11-18T04:48:21.076Z,5.10
2017-11-18T04:50:48.784Z,5.20
2017-11-18T04:53:16.457Z,5.30
2017-11-18T04:55:44.959Z,5.40
2017-11-18T04:58:12.648Z,5.40
2017-11-18T05:00:40.428Z,5.50
2017-11-18T05:03:10.877Z,5.50
2017-11-18T05:05:42.293Z,5.40
2017-11-18T05:08:11.494Z,5.40
2017-11-18T05:10:41.958Z,5.40
2017-11-18T05:13:11.924Z,5.40
2017-11-18T05:15:40.028Z,5.50
2017-11-18T05:18:08.797Z,5.50
2017-11-18T05:20:36.655Z,5.50
2017-11-18T05:23:04.357Z,5.50
2017-11-18T05:25:32.757Z,5.50
2017-11-18T05:28:00.729Z,5.50
2017-11-18T05:30:28.924Z,5.40
2017-11-18T05:32:56.665Z,5.40
2017-11-18T05:35:24.446Z,5.40
2017-11-18T05:37:52.157Z,5.40
2017-11-18T05:40:20.687Z,5.30
2017-11-18T05:42:48.373Z,5.20
2017-11-18T05:45:16.902Z,5.30
2017-11-18T05:47:44.576Z,5.20
2017-11-18T05:50:12.295Z,5.30
2017-11-18T05:52:40.737Z,5.40
2017-11-18T05:55:08.465Z,5.40
2017-11-18T05:57:36.203Z,5.40
2017-11-18T06:00:04.013Z,5.30
2017-11-18T06:02:31.765Z,5.30
2017-11-18T06:05:00.220Z,5.30
2017-11-18T06:07:27.928Z,5.40
2017-11-18T06:09:55.608Z,5.40
2017-11-18T06:12:24.144Z,5.50
2017-11-18T06:14:51.819Z,5.40
2017-11-18T06:17:19.546Z,5.40
2017-11-18T06:19:47.234Z,5.40
2017-11-18T06:22:14.948Z,5.30
2017-11-18T06:24:42.624Z,5.30
2017-11-18T06:27:10.351Z,5.30
2017-11-18T06:29:38.788Z,5.30
2017-11-18T06:32:06.496Z,5.30
2017-11-18T06:34:34.173Z,5.30
2017-11-18T06:37:01.889Z,5.20
2017-11-18T06:39:29.567Z,5.20
2017-11-18T06:41:58.042Z,5.10
2017-11-18T06:44:26.475Z,5.10
2017-11-18T06:46:54.185Z,5.10
2017-11-18T06:49:21.877Z,5.10
2017-11-18T06:51:49.584Z,5.20
2017-11-18T06:54:17.249Z,5.20
2017-11-18T06:56:44.960Z,5.30
2017-11-18T06:59:12.630Z,5.30
2017-11-18T07:01:40.353Z,5.20
2017-11-18T07:04:08.017Z,5.20
2017-11-18T07:06:35.716Z,5.20
2017-11-18T07:09:03.552Z,5.20
2017-11-18T07:11:31.217Z,5.00
2017-11-18T07:13:58.932Z,5.10
2017-11-18T07:16:27.376Z,5.00
2017-11-18T07:18:55.088Z,5.00
2017-11-18T07:21:23.532Z,5.00
2017-11-18T07:23:51.248Z,5.00
2017-11-18T07:26:18.953Z,4.90
2017-11-18T07:28:46.653Z,4.80
2017-11-18T07:31:14.325Z,4.80
2017-11-18T07:33:42.041Z,4.70
2017-11-18T07:36:09.716Z,4.80
2017-11-18T07:38:38.200Z,4.60
2017-11-18T07:41:06.631Z,4.50
2017-11-18T07:43:34.337Z,4.50
2017-11-18T07:46:02.777Z,4.60
2017-11-18T07:48:30.490Z,4.60
2017-11-18T07:50:58.156Z,4.60
2017-11-18T07:53:25.867Z,4.60
2017-11-18T07:55:53.532Z,4.60
2017-11-18T07:58:21.246Z,4.50
2017-11-18T08:00:48.960Z,4.60
2017-11-18T08:03:17.441Z,4.80
2017-11-18T08:05:45.872Z,4.80
2017-11-18T08:08:13.588Z,4.80
2017-11-18T08:10:42.022Z,4.70
2017-11-18T08:13:09.689Z,4.70
2017-11-18T08:15:37.445Z,4.70
2017-11-18T08:18:05.182Z,4.70
2017-11-18T08:20:32.932Z,4.80
2017-11-18T08:23:00.608Z,4.80
2017-11-18T08:25:28.317Z,4.90
2017-11-18T08:27:56.756Z,5.20
2017-11-18T08:30:24.475Z,5.20
2017-11-18T08:32:52.141Z,5.30
2017-11-18T08:35:19.853Z,5.40
2017-11-18T08:37:47.533Z,5.60
2017-11-18T08:40:16.012Z,5.80
2017-11-18T08:42:44.441Z,5.80
2017-11-18T08:45:12.165Z,5.80
2017-11-18T08:47:40.588Z,5.50
2017-11-18T08:50:08.340Z,5.50
2017-11-18T08:52:36.009Z,5.50
2017-11-18T08:55:03.793Z,5.50
2017-11-18T08:57:31.472Z,5.60
2017-11-18T08:59:59.967Z,5.70
2017-11-18T09:02:27.661Z,5.70
2017-11-18T09:04:55.419Z,5.90
2017-11-18T09:07:23.112Z,6.10
2017-11-18T09:09:50.840Z,6.10
2017-11-18T09:12:18.504Z,6.10
2017-11-18T09:14:46.169Z,6.20
2017-11-18T09:17:13.879Z,6.20
2017-11-18T09:19:42.318Z,6.20
2017-11-18T09:22:10.120Z,6.20
2017-11-18T09:24:37.792Z,6.20
2017-11-18T09:27:05.512Z,6.20
2017-11-18T09:29:33.189Z,6.20
2017-11-18T09:32:01.669Z,6.20
2017-11-18T09:34:30.118Z,6.10
2017-11-18T09:36:57.830Z,6.10
2017-11-18T09:39:25.491Z,6.00
2017-11-18T09:41:53.208Z,6.00
2017-11-18T09:44:20.886Z,6.00
2017-11-18T09:46:49.366Z,6.10
2017-11-18T09:49:17.804Z,6.20
2017-11-18T09:51:45.516Z,6.20
2017-11-18T09:54:13.185Z,6.30
2017-11-18T09:56:40.900Z,6.40
2017-11-18T09:59:08.576Z,6.60
2017-11-18T10:01:37.051Z,7.00
2017-11-18T10:04:04.738Z,6.90
2017-11-18T10:06:32.508Z,7.20
2017-11-18T10:09:00.193Z,7.40
2017-11-18T10:11:27.953Z,7.60
2017-11-18T10:13:55.617Z,7.80
2017-11-18T10:16:23.289Z,7.90
2017-11-18T10:18:51.005Z,8.10
2017-11-18T10:21:18.678Z,8.30
2017-11-18T10:23:46.406Z,8.40
2017-11-18T10:26:14.834Z,8.20
2017-11-18T10:28:42.543Z,8.20
2017-11-18T10:31:11.130Z,7.60
2017-11-18T10:33:39.628Z,7.50
2017-11-18T10:36:07.305Z,7.50
2017-11-18T10:38:35.050Z,7.50
2017-11-18T10:41:02.739Z,7.50
2017-11-18T10:43:30.443Z,7.20
2017-11-18T10:45:58.901Z,7.00
2017-11-18T10:48:26.624Z,7.00
2017-11-18T10:50:54.289Z,7.00
2017-11-18T10:53:22.061Z,7.00
2017-11-18T10:55:49.757Z,7.00
2017-11-18T10:58:18.255Z,6.60
2017-11-18T11:00:45.997Z,6.60
2017-11-18T11:03:14.492Z,6.50
2017-11-18T11:05:42.270Z,6.50
2017-11-18T11:08:10.058Z,6.40
2017-11-18T11:10:37.785Z,6.60
2017-11-18T11:13:05.528Z,6.90
2017-11-18T11:15:33.969Z,6.70
2017-11-18T11:18:01.717Z,6.70
2017-11-18T11:20:29.395Z,6.80
2017-11-18T11:22:57.118Z,7.20
2017-11-18T11:25:24.856Z,7.40
2017-11-18T11:27:52.542Z,7.70
2017-11-18T11:30:20.297Z,7.80
2017-11-18T11:32:47.957Z,7.40
2017-11-18T11:35:15.712Z,7.50
2017-11-18T11:37:43.385Z,7.10
2017-11-18T11:40:11.141Z,7.00
2017-11-18T11:42:38.828Z,6.70
2017-11-18T11:45:06.592Z,6.50
2017-11-18T11:47:34.303Z,6.40
2017-11-18T11:50:02.011Z,6.50
2017-11-18T11:52:29.705Z,6.40
2017-11-18T11:54:58.255Z,6.20
2017-11-18T11:57:25.958Z,6.20
2017-11-18T11:59:53.717Z,6.10
2017-11-18T12:02:22.191Z,6.20
2017-11-18T12:04:50.676Z,6.20
2017-11-18T12:07:18.364Z,6.20
2017-11-18T12:09:46.098Z,6.30
2017-11-18T12:12:13.772Z,6.40
2017-11-18T12:14:41.483Z,6.50
2017-11-18T12:17:09.213Z,6.60
2017-11-18T12:19:36.918Z,6.70
2017-11-18T12:22:05.416Z,6.80
2017-11-18T12:24:33.143Z,6.70
2017-11-18T12:27:00.816Z,6.50
2017-11-18T12:29:29.353Z,6.40
2017-11-18T12:31:57.025Z,6.30
2017-11-18T12:34:24.738Z,6.40
2017-11-18T12:36:52.463Z,6.40
2017-11-18T12:39:20.149Z,6.40
2017-11-18T12:41:48.638Z,6.30
2017-11-18T12:44:16.313Z,6.30
2017-11-18T12:46:44.090Z,6.30
2017-11-18T12:49:11.805Z,6.30
2017-11-18T12:51:40.365Z,6.30
2017-11-18T12:54:08.045Z,6.30
2017-11-18T12:56:36.533Z,6.20
2017-11-18T12:59:04.211Z,6.20
2017-11-18T13:01:31.934Z,6.30
2017-11-18T13:04:00.400Z,6.10
2017-11-18T13:06:28.142Z,6.20
2017-11-18T13:08:55.812Z,6.10
2017-11-18T13:11:24.279Z,6.10
2017-11-18T13:13:52.042Z,6.00
2017-11-18T13:16:19.747Z,6.00
2017-11-18T13:18:48.173Z,5.70
2017-11-18T13:21:16.650Z,5.80
2017-11-18T13:23:44.317Z,5.80
2017-11-18T13:26:12.033Z,5.80
2017-11-18T13:28:39.700Z,5.80
2017-11-18T13:31:07.481Z,5.70
2017-11-18T13:33:35.159Z,5.70
2017-11-18T13:36:02.893Z,5.70
2017-11-18T13:38:30.610Z,5.80
2017-11-18T13:40:59.074Z,5.80
2017-11-18T13:43:26.797Z,5.80
2017-11-18T13:45:54.456Z,5.80
2017-11-18T13:48:22.169Z,5.90
2017-11-18T13:50:50.607Z,5.90
2017-11-18T13:53:18.313Z,5.90
2017-11-18T13:55:46.743Z,6.00
2017-11-18T13:58:14.448Z,6.00
2017-11-18T14:00:42.877Z,6.00
2017-11-18T14:03:10.605Z,6.00
2017-11-18T14:05:38.358Z,5.90
2017-11-18T14:08:07.509Z,5.90
2017-11-18T14:10:36.022Z,5.90
2017-11-18T14:13:04.528Z,5.90
2017-11-18T14:15:32.208Z,5.80
2017-11-18T14:17:59.992Z,5.90
2017-11-18T14:20:27.725Z,5.80
2017-11-18T14:22:55.445Z,5.80
2017-11-18T14:25:23.935Z,5.90
2017-11-18T14:27:51.697Z,5.90
2017-11-18T14:30:19.429Z,6.00
2017-11-18T14:32:47.151Z,6.10
2017-11-18T14:35:14.829Z,6.10
2017-11-18T14:37:42.600Z,6.00
2017-11-18T14:40:10.349Z,6.10
2017-11-18T14:42:38.072Z,5.90
2017-11-18T14:45:05.816Z,5.90
2017-11-18T14:47:34.281Z,6.00
2017-11-18T14:50:02.792Z,5.90
2017-11-18T14:52:30.504Z,5.90
2017-11-18T14:54:58.264Z,5.80
2017-11-18T14:57:25.998Z,5.90
2017-11-18T14:59:53.801Z,6.00
2017-11-18T15:02:22.341Z,6.00
2017-11-18T15:04:50.165Z,6.00
2017-11-18T15:07:17.931Z,6.10
2017-11-18T15:09:45.749Z,6.10
2017-11-18T15:12:13.553Z,6.10
2017-11-18T15:14:43.992Z,6.10
2017-11-18T15:17:17.419Z,6.10
2017-11-18T15:22:52.691Z,6.10
2017-11-18T15:25:26.101Z,6.00
2017-11-18T15:28:00.140Z,6.00
2017-11-18T15:30:31.418Z,6.00
2017-11-18T15:36:11.865Z,6.00
2017-11-18T15:38:43.461Z,5.90
2017-11-18T15:41:11.277Z,6.00
2017-11-18T15:46:47.650Z,6.00
2017-11-18T15:49:21.094Z,5.90
2017-11-18T15:51:51.741Z,5.90
2017-11-18T15:54:25.788Z,5.90
2017-11-18T15:56:59.045Z,5.90
2017-11-18T15:59:29.412Z,5.90
2017-11-18T16:01:57.234Z,5.90
2017-11-18T16:04:28.257Z,5.90
2017-11-18T16:10:01.640Z,5.90
2017-11-18T16:12:29.417Z,5.90
2017-11-18T16:14:57.191Z,5.80
2017-11-18T16:17:24.968Z,5.80
2017-11-18T16:19:53.464Z,5.80
2017-11-18T16:22:21.253Z,5.80
2017-11-18T16:24:48.991Z,5.80
2017-11-18T16:27:16.844Z,5.80
2017-11-18T16:29:45.365Z,5.80
2017-11-18T16:32:13.141Z,5.80
2017-11-18T16:34:40.872Z,5.80
2017-11-18T16:37:08.649Z,5.70
2017-11-18T16:39:36.378Z,5.70
2017-11-18T16:42:04.178Z,5.70
2017-11-18T16:44:31.913Z,5.70
2017-11-18T16:46:59.666Z,5.70
2017-11-18T16:49:27.464Z,5.70
2017-11-18T16:51:55.243Z,5.70
2017-11-18T16:54:22.989Z,5.70
2017-11-18T16:56:51.545Z,5.70
2017-11-18T16:59:19.277Z,5.70
2017-11-18T17:01:47.812Z,5.70
2017-11-18T17:04:15.558Z,5.70
2017-11-18T17:06:43.304Z,5.70
2017-11-18T17:09:11.076Z,5.70
2017-11-18T17:11:38.813Z,5.70
2017-11-18T17:14:06.619Z,5.80
2017-11-18T17:16:34.362Z,5.80
2017-11-18T17:19:02.149Z,5.70
2017-11-18T17:21:29.880Z,5.70
2017-11-18T17:23:58.037Z,5.70
2017-11-18T17:26:25.724Z,5.70
2017-11-18T17:28:53.500Z,5.60
2017-11-18T17:31:21.230Z,5.60
2017-11-18T17:33:49.034Z,5.60
2017-11-18T17:36:16.760Z,5.60
2017-11-18T17:38:44.541Z,5.70
2017-11-18T17:41:22.989Z,5.60
2017-11-18T17:43:51.522Z,5.60
2017-11-18T17:46:19.262Z,5.70
2017-11-18T17:48:47.029Z,5.60
2017-11-18T17:51:14.783Z,5.70
2017-11-18T17:53:42.554Z,5.60
2017-11-18T17:56:10.286Z,5.70
2017-11-18T17:58:38.875Z,5.70
2017-11-18T18:01:06.665Z,5.70
2017-11-18T18:03:34.438Z,5.70
2017-11-18T18:06:02.206Z,5.70
2017-11-18T18:08:29.954Z,5.70
2017-11-18T18:10:57.742Z,5.70
2017-11-18T18:13:25.475Z,5.70
2017-11-18T18:15:53.248Z,5.70
2017-11-18T18:18:20.970Z,5.70
2017-11-18T18:20:48.702Z,5.70
2017-11-18T18:23:17.179Z,5.70
2017-11-18T18:25:44.912Z,5.70
2017-11-18T18:28:12.597Z,5.80
2017-11-18T18:30:41.135Z,5.70
2017-11-18T18:33:08.803Z,5.70
2017-11-18T18:35:36.570Z,5.70
2017-11-18T18:38:04.305Z,5.70
2017-11-18T18:40:32.070Z,5.70
2017-11-18T18:42:59.811Z,5.70
2017-11-18T18:45:27.522Z,5.70
2017-11-18T18:47:55.213Z,5.70
2017-11-18T18:50:23.728Z,5.50
2017-11-18T18:52:51.448Z,5.60
2017-11-18T18:55:19.932Z,5.50
2017-11-18T18:57:48.429Z,5.50
2017-11-18T19:00:16.218Z,5.40
2017-11-18T19:02:43.902Z,5.50
2017-11-18T19:05:11.703Z,5.50
2017-11-18T19:07:40.164Z,5.50
2017-11-18T19:10:08.622Z,5.50
2017-11-18T19:12:36.344Z,5.50
2017-11-18T19:15:04.069Z,5.50
2017-11-18T19:17:32.557Z,5.50
2017-11-18T19:20:01.141Z,5.50
2017-11-18T19:22:28.885Z,5.50
2017-11-18T19:24:57.346Z,5.50
2017-11-18T19:27:26.590Z,5.50
2017-11-18T19:29:54.317Z,5.50
2017-11-18T19:32:22.835Z,5.50
2017-11-18T19:34:50.542Z,5.50
2017-11-18T19:37:18.301Z,5.50
2017-11-18T19:39:45.976Z,5.40
2017-11-18T19:42:13.734Z,5.50
2017-11-18T19:44:41.436Z,5.50
2017-11-18T19:47:09.204Z,5.50
2017-11-18T19:49:36.924Z,5.50
2017-11-18T19:52:05.500Z,5.50
2017-11-18T19:54:33.275Z,5.50
2017-11-18T19:57:01.813Z,5.50
2017-11-18T19:59:29.499Z,5.50
2017-11-18T20:01:57.228Z,5.50
2017-11-18T20:04:25.006Z,5.50
2017-11-18T20:06:52.784Z,5.50
2017-11-18T20:09:20.529Z,5.50
2017-11-18T20:11:48.294Z,5.50
2017-11-18T20:14:15.981Z,5.50
2017-11-18T20:16:44.652Z,5.40
2017-11-18T20:19:13.185Z,5.40
2017-11-18T20:21:40.854Z,5.40
2017-11-18T20:24:08.633Z,5.40
2017-11-18T20:26:36.337Z,5.40
2017-11-18T20:29:04.077Z,5.40
2017-11-18T20:31:32.553Z,5.30
2017-11-18T20:34:01.059Z,5.30
2017-11-18T20:36:28.827Z,5.30
2017-11-18T20:38:56.590Z,5.30
2017-11-18T20:41:24.287Z,5.30
2017-11-18T20:43:52.027Z,5.30
2017-11-18T20:46:19.688Z,5.40
2017-11-18T20:48:47.399Z,5.30
2017-11-18T20:51:15.835Z,5.30
2017-11-18T20:53:43.540Z,5.30
2017-11-18T20:56:11.981Z,5.30
2017-11-18T20:58:39.699Z,5.30
2017-11-18T21:01:07.381Z,5.30
2017-11-18T21:03:35.466Z,5.30
2017-11-18T21:06:03.142Z,5.30
2017-11-18T21:08:30.844Z,5.30
2017-11-18T21:10:58.532Z,5.40
2017-11-18T21:13:26.499Z,5.40
2017-11-18T21:15:55.651Z,5.40
2017-11-18T21:18:26.581Z,5.30
2017-11-18T21:20:56.454Z,5.30
2017-11-18T21:23:27.409Z,5.40
2017-11-18T21:25:58.457Z,5.40
2017-11-18T21:28:29.419Z,5.40
2017-11-18T21:30:59.244Z,5.40
2017-11-18T21:33:29.886Z,5.40
2017-11-18T21:35:59.798Z,5.30
2017-11-18T21:38:29.942Z,5.40
2017-11-18T21:41:00.681Z,5.40
2017-11-18T21:43:31.387Z,5.40
2017-11-18T21:46:01.728Z,5.40
2017-11-18T21:48:32.797Z,5.40
2017-11-18T21:51:02.692Z,5.30
2017-11-18T21:53:33.990Z,5.40
2017-11-18T21:56:04.696Z,5.30
2017-11-18T21:58:32.661Z,5.40
2017-11-18T22:01:00.378Z,5.40
2017-11-18T22:03:28.054Z,5.30
2017-11-18T22:05:56.547Z,5.30
2017-11-18T22:08:24.978Z,5.30
2017-11-18T22:10:52.699Z,5.30
2017-11-18T22:13:20.352Z,5.30
2017-11-18T22:15:48.070Z,5.30
2017-11-18T22:18:15.806Z,5.30
2017-11-18T22:20:43.559Z,5.30
2017-11-18T22:23:11.265Z,5.30
2017-11-18T22:25:38.998Z,5.40
2017-11-18T22:28:06.730Z,5.40
2017-11-18T22:30:34.511Z,5.30
2017-11-18T22:33:02.230Z,5.40
2017-11-18T22:35:29.965Z,5.30
2017-11-18T22:37:57.649Z,5.40
2017-11-18T22:40:26.137Z,5.40
2017-11-18T22:42:53.814Z,5.40
2017-11-18T22:45:21.589Z,5.40
2017-11-18T22:47:49.260Z,5.40
2017-11-18T22:50:16.996Z,5.40
2017-11-18T22:52:44.670Z,5.40
2017-11-18T22:55:12.397Z,5.40
2017-11-18T22:57:40.851Z,5.40
2017-11-18T23:00:08.630Z,5.40
2017-11-18T23:02:37.111Z,5.50
2017-11-18T23:05:05.568Z,5.40
2017-11-18T23:07:33.278Z,5.40
2017-11-18T23:10:00.962Z,5.50
2017-11-18T23:12:28.679Z,5.40
2017-11-18T23:14:56.360Z,5.40
2017-11-18T23:17:24.067Z,5.40
2017-11-18T23:19:51.926Z,5.50
2017-11-18T23:22:19.653Z,5.50
2017-11-18T23:24:47.315Z,5.50
2017-11-18T23:27:15.042Z,5.50
2017-11-18T23:29:43.503Z,5.50
2017-11-18T23:32:11.981Z,5.50
2017-11-18T23:34:40.465Z,5.40
2017-11-18T23:37:08.967Z,5.40
2017-11-18T23:39:36.664Z,5.40
2017-11-18T23:42:04.385Z,5.40
2017-11-18T23:44:32.081Z,5.40
2017-11-18T23:46:59.815Z,5.50
2017-11-18T23:49:27.539Z,5.50
2017-11-18T23:51:56.150Z,5.40
2017-11-18T23:54:23.880Z,5.40
2017-11-18T23:56:52.391Z,5.40
2017-11-18T23:59:20.138Z,5.40
